createdAt,value
2023-04-02T00:00:10.640Z,85.26
2023-04-02T00:03:15.439Z,84.98
2023-04-02T00:06:30.550Z,84.62
2023-04-02T00:09:35.946Z,84.61
2023-04-02T00:12:37.625Z,84.38
2023-04-02T00:15:41.522Z,84.39
2023-04-02T00:18:50.234Z,84.76
2023-04-02T00:21:53.137Z,84.54
2023-04-02T00:24:59.071Z,84.13
2023-04-02T00:28:00.834Z,84.14
2023-04-02T00:31:05.472Z,84.06
2023-04-02T00:34:11.528Z,83.95
2023-04-02T00:37:28.438Z,83.82
2023-04-02T00:40:34.213Z,83.61
2023-04-02T00:43:39.741Z,84.16
2023-04-02T00:46:49.742Z,83.55
2023-04-02T00:50:01.078Z,84.05
2023-04-02T00:53:16.785Z,84.17
2023-04-02T00:56:28.463Z,83.85
2023-04-02T00:59:36.879Z,84.02
2023-04-02T01:02:40.906Z,83.66
2023-04-02T01:05:50.246Z,83.93
2023-04-02T01:09:16.796Z,83.67
2023-04-02T01:12:39.656Z,84.03
2023-04-02T01:16:00.917Z,83.96
2023-04-02T01:19:31.802Z,83.53
2023-04-02T01:23:04.966Z,83.83
2023-04-02T01:26:31.333Z,84.07
2023-04-02T01:29:41.715Z,83.84
2023-04-02T01:32:45.618Z,84.00
2023-04-02T01:36:01.778Z,84.15
2023-04-02T01:39:45.862Z,84.33
2023-04-02T01:42:58.830Z,84.54
2023-04-02T01:46:26.026Z,84.31
2023-04-02T01:49:29.037Z,84.06
2023-04-02T01:52:46.348Z,83.95
2023-04-02T01:55:55.102Z,83.99
2023-04-02T01:58:58.809Z,84.31
2023-04-02T02:02:12.405Z,84.56
2023-04-02T02:05:19.114Z,84.49
2023-04-02T02:08:40.633Z,84.60
2023-04-02T02:11:44.668Z,84.64
2023-04-02T02:14:52.128Z,84.90
2023-04-02T02:18:02.524Z,85.05
2023-04-02T02:21:07.157Z,84.92
2023-04-02T02:24:36.163Z,85.17
2023-04-02T02:27:43.842Z,84.96
2023-04-02T02:30:52.796Z,85.44
2023-04-02T02:34:02.820Z,85.80
2023-04-02T02:37:15.130Z,85.70
2023-04-02T02:40:25.708Z,85.68
2023-04-02T02:43:30.664Z,85.55
2023-04-02T02:46:35.500Z,86.05
2023-04-02T02:49:43.474Z,85.99
2023-04-02T02:52:51.532Z,86.21
2023-04-02T02:55:58.002Z,85.87
2023-04-02T02:59:07.315Z,86.25
2023-04-02T03:02:16.283Z,86.69
2023-04-02T03:05:23.841Z,86.00
2023-04-02T03:08:46.797Z,86.35
2023-04-02T03:12:16.341Z,86.75
2023-04-02T03:15:22.657Z,86.52
2023-04-02T03:18:32.054Z,86.38
2023-04-02T03:21:48.735Z,86.17
2023-04-02T03:25:13.869Z,86.38
2023-04-02T03:28:22.975Z,86.44
2023-04-02T03:31:38.435Z,86.24
2023-04-02T03:35:01.553Z,86.38
2023-04-02T03:38:19.588Z,86.32
2023-04-02T03:41:41.622Z,86.27
2023-04-02T03:45:12.680Z,86.81
2023-04-02T03:48:31.433Z,86.69
2023-04-02T03:51:57.233Z,86.88
2023-04-02T03:55:10.696Z,86.52
2023-04-02T03:58:24.311Z,86.53
2023-04-02T04:01:35.423Z,86.89
2023-04-02T04:04:41.952Z,86.94
2023-04-02T04:07:44.729Z,86.94
2023-04-02T04:10:52.206Z,86.99
2023-04-02T04:14:17.344Z,86.46
2023-04-02T04:17:51.263Z,86.81
2023-04-02T04:21:01.004Z,86.74
2023-04-02T04:24:21.731Z,86.87
2023-04-02T04:27:36.103Z,86.92
2023-04-02T04:31:00.107Z,87.17
2023-04-02T04:34:18.452Z,86.79
2023-04-02T04:37:29.134Z,86.96
2023-04-02T04:40:37.721Z,86.99
2023-04-02T04:43:56.182Z,86.94
2023-04-02T04:47:10.736Z,86.83
2023-04-02T04:50:31.161Z,86.59
2023-04-02T04:53:33.293Z,86.74
2023-04-02T04:56:37.337Z,86.73
2023-04-02T04:59:52.605Z,86.62
2023-04-02T05:03:06.176Z,86.86
2023-04-02T05:06:36.980Z,86.97
2023-04-02T05:09:55.409Z,86.78
2023-04-02T05:13:28.568Z,87.14
2023-04-02T05:16:45.180Z,87.16
2023-04-02T05:19:53.857Z,87.33
2023-04-02T05:23:15.467Z,87.44
2023-04-02T05:26:39.028Z,87.81
2023-04-02T05:29:47.189Z,87.83
2023-04-02T05:32:59.784Z,87.87
2023-04-02T05:36:06.575Z,87.62
2023-04-02T05:39:21.854Z,87.86
2023-04-02T05:42:34.555Z,88.00
2023-04-02T05:45:51.591Z,87.82
2023-04-02T05:48:58.747Z,88.07
2023-04-02T05:52:03.576Z,87.80
2023-04-02T05:55:14.794Z,88.21
2023-04-02T05:58:36.220Z,88.18
2023-04-02T06:02:03.601Z,88.51
2023-04-02T06:05:17.403Z,88.20
2023-04-02T06:08:25.702Z,88.49
2023-04-02T06:11:32.800Z,88.45
2023-04-02T06:14:37.232Z,88.73
2023-04-02T06:17:47.535Z,88.74
2023-04-02T06:20:49.690Z,88.86
2023-04-02T06:24:02.742Z,89.07
2023-04-02T06:27:10.197Z,88.86
2023-04-02T06:30:27.531Z,88.94
2023-04-02T06:33:29.280Z,89.37
2023-04-02T06:36:32.764Z,89.25
2023-04-02T06:39:38.998Z,89.20
2023-04-02T06:42:49.665Z,89.33
2023-04-02T06:46:29.999Z,89.42
2023-04-02T06:49:51.091Z,89.21
2023-04-02T06:52:55.761Z,89.23
2023-04-02T06:56:22.231Z,88.93
2023-04-02T06:59:25.036Z,88.36
2023-04-02T07:02:37.264Z,88.29
2023-04-02T07:05:43.037Z,88.36
2023-04-02T07:08:45.697Z,88.22
2023-04-02T07:11:54.623Z,87.93
2023-04-02T07:14:56.523Z,87.45
2023-04-02T07:18:02.983Z,87.16
2023-04-02T07:21:08.058Z,87.57
2023-04-02T07:24:12.939Z,87.71
2023-04-02T07:27:17.895Z,87.66
2023-04-02T07:30:22.529Z,87.25
2023-04-02T07:33:32.539Z,87.09
2023-04-02T07:36:36.413Z,87.34
2023-04-02T07:39:46.706Z,86.67
2023-04-02T07:42:52.396Z,86.45
2023-04-02T07:45:58.123Z,85.76
2023-04-02T07:49:03.225Z,85.43
2023-04-02T07:52:11.298Z,85.10
2023-04-02T07:55:15.150Z,85.29
2023-04-02T07:58:20.261Z,84.86
2023-04-02T08:01:29.975Z,84.70
2023-04-02T08:04:31.677Z,84.18
2023-04-02T08:07:34.068Z,84.25
2023-04-02T08:10:39.100Z,84.08
2023-04-02T08:13:41.847Z,84.39
2023-04-02T08:16:56.653Z,83.28
2023-04-02T08:20:04.311Z,83.51
2023-04-02T08:23:20.926Z,83.01
2023-04-02T08:26:25.505Z,83.92
2023-04-02T08:29:37.168Z,82.80
2023-04-02T08:32:42.201Z,82.98
2023-04-02T08:35:46.336Z,83.29
2023-04-02T08:38:52.263Z,82.57
2023-04-02T08:42:01.595Z,83.17
2023-04-02T08:45:31.043Z,81.80
2023-04-02T08:52:01.669Z,81.14
2023-04-02T08:55:43.545Z,80.99
2023-04-02T08:58:57.052Z,79.52
2023-04-02T09:02:26.054Z,79.28
2023-04-02T09:05:35.674Z,79.52
2023-04-02T09:08:41.907Z,79.12
2023-04-02T09:12:05.004Z,78.98
2023-04-02T09:15:17.591Z,79.69
2023-04-02T09:18:23.386Z,78.85
2023-04-02T09:22:06.454Z,77.33
2023-04-02T09:25:19.420Z,76.24
2023-04-02T09:28:27.347Z,76.22
2023-04-02T09:32:19.548Z,76.83
2023-04-02T09:35:27.072Z,77.27
2023-04-02T09:38:32.731Z,76.65
2023-04-02T09:44:56.027Z,76.18
2023-04-02T09:48:01.144Z,76.69
2023-04-02T09:51:25.304Z,75.71
2023-04-02T09:54:30.342Z,76.00
2023-04-02T09:57:35.579Z,76.83
2023-04-02T10:00:41.861Z,77.71
2023-04-02T10:03:46.596Z,77.61
2023-04-02T10:06:58.247Z,79.91
2023-04-02T10:10:28.439Z,81.76
2023-04-02T10:14:10.838Z,82.84
2023-04-02T10:17:58.502Z,81.10
2023-04-02T10:21:10.522Z,80.88
2023-04-02T10:24:23.581Z,80.20
2023-04-02T10:27:56.911Z,79.14
2023-04-02T10:31:17.760Z,78.42
2023-04-02T10:34:52.645Z,79.40
2023-04-02T10:38:24.092Z,79.37
2023-04-02T10:41:55.986Z,80.20
2023-04-02T10:45:22.426Z,77.90
2023-04-02T10:49:11.921Z,76.09
2023-04-02T10:56:11.772Z,76.36
2023-04-02T10:59:33.532Z,76.38
2023-04-02T11:03:25.161Z,78.10
2023-04-02T11:06:58.102Z,75.71
2023-04-02T11:10:09.701Z,75.58
2023-04-02T11:13:42.848Z,74.42
2023-04-02T11:16:48.182Z,74.74
2023-04-02T11:19:53.812Z,73.65
2023-04-02T11:23:13.997Z,73.18
2023-04-02T11:26:56.502Z,72.40
2023-04-02T11:30:23.143Z,73.36
2023-04-02T11:33:54.108Z,72.55
2023-04-02T11:36:58.812Z,72.13
2023-04-02T11:40:03.884Z,72.45
2023-04-02T11:43:35.286Z,71.72
2023-04-02T11:46:43.389Z,70.61
2023-04-02T11:50:07.387Z,70.47
2023-04-02T11:53:19.844Z,70.67
2023-04-02T11:57:23.533Z,70.43
2023-04-02T12:01:06.996Z,70.17
2023-04-02T12:08:31.728Z,69.67
2023-04-02T12:11:41.498Z,69.25
2023-04-02T12:14:56.114Z,70.21
2023-04-02T12:18:22.648Z,69.70
2023-04-02T12:21:31.413Z,69.94
2023-04-02T12:24:43.312Z,70.03
2023-04-02T12:27:46.585Z,67.17
2023-04-02T12:30:59.134Z,67.94
2023-04-02T12:34:12.199Z,67.90
2023-04-02T12:37:29.622Z,68.18
2023-04-02T12:40:40.134Z,67.85
2023-04-02T12:43:57.382Z,67.69
2023-04-02T12:47:11.744Z,67.01
2023-04-02T12:50:17.976Z,68.25
2023-04-02T12:53:32.677Z,70.31
2023-04-02T12:56:35.925Z,73.04
2023-04-02T13:00:03.363Z,76.84
2023-04-02T13:03:34.424Z,78.16
2023-04-02T13:06:39.580Z,80.89
2023-04-02T13:09:46.746Z,81.56
2023-04-02T13:13:00.281Z,82.58
2023-04-02T13:16:25.843Z,83.78
2023-04-02T13:23:06.820Z,84.00
2023-04-02T13:26:28.211Z,82.47
2023-04-02T13:29:38.736Z,81.73
2023-04-02T13:36:02.132Z,80.54
2023-04-02T13:39:09.004Z,81.07
2023-04-02T13:42:13.459Z,80.30
2023-04-02T13:45:25.985Z,80.66
2023-04-02T13:48:31.678Z,80.22
2023-04-02T13:51:41.785Z,80.27
2023-04-02T13:54:54.656Z,80.83
2023-04-02T13:58:06.297Z,81.11
2023-04-02T14:01:17.133Z,80.87
2023-04-02T14:04:48.701Z,80.46
2023-04-02T14:08:19.555Z,81.73
2023-04-02T14:11:35.930Z,81.19
2023-04-02T14:15:03.692Z,80.94
2023-04-02T14:18:40.062Z,82.29
2023-04-02T14:22:12.743Z,85.07
2023-04-02T14:25:41.694Z,87.78
2023-04-02T14:29:12.898Z,88.28
2023-04-02T14:32:23.413Z,88.80
2023-04-02T14:35:52.951Z,89.95
2023-04-02T14:39:07.482Z,91.60
2023-04-02T14:42:26.819Z,92.09
2023-04-02T14:45:49.175Z,91.43
2023-04-02T14:49:05.106Z,92.26
2023-04-02T14:52:23.735Z,92.59
2023-04-02T14:55:51.450Z,92.91
2023-04-02T14:59:35.649Z,93.20
2023-04-02T15:02:56.446Z,93.05
2023-04-02T15:06:12.992Z,93.74
2023-04-02T15:09:25.593Z,92.78
2023-04-02T15:12:40.498Z,93.52
2023-04-02T15:16:06.738Z,93.56
2023-04-02T15:19:18.935Z,94.24
2023-04-02T15:22:32.311Z,93.54
2023-04-02T15:26:00.791Z,93.54
2023-04-02T15:29:42.043Z,94.70
2023-04-02T15:32:44.496Z,95.11
2023-04-02T15:35:59.488Z,94.75
2023-04-02T15:39:47.279Z,94.18
2023-04-02T15:43:24.281Z,95.31
2023-04-02T15:47:05.056Z,95.10
2023-04-02T15:50:38.365Z,95.69
2023-04-02T15:54:21.736Z,95.88
2023-04-02T15:58:00.145Z,94.89
2023-04-02T16:01:33.683Z,95.23
2023-04-02T16:05:16.546Z,95.54
2023-04-02T16:08:57.575Z,94.96
2023-04-02T16:12:23.048Z,95.31
2023-04-02T16:15:39.270Z,95.89
2023-04-02T16:19:29.573Z,95.27
2023-04-02T16:22:40.557Z,95.60
2023-04-02T16:26:18.379Z,94.82
2023-04-02T16:29:59.189Z,94.66
2023-04-02T16:33:46.562Z,95.21
2023-04-02T16:37:29.373Z,96.19
2023-04-02T16:41:08.497Z,95.51
2023-04-02T16:45:02.621Z,95.86
2023-04-02T16:48:57.306Z,96.22
2023-04-02T16:52:26.815Z,96.07
2023-04-02T17:00:33.675Z,95.70
2023-04-02T17:04:19.701Z,96.10
2023-04-02T17:07:52.029Z,96.22
2023-04-02T17:11:16.168Z,96.43
2023-04-02T17:18:08.084Z,97.07
2023-04-02T17:21:14.643Z,96.75
2023-04-02T17:24:45.956Z,96.73
2023-04-02T17:28:03.060Z,96.37
2023-04-02T17:31:37.337Z,96.15
2023-04-02T17:34:44.187Z,96.19
2023-04-02T17:38:07.133Z,96.41
2023-04-02T17:41:39.622Z,96.78
2023-04-02T17:45:04.070Z,96.94
2023-04-02T17:48:48.224Z,96.68
2023-04-02T17:52:09.322Z,97.84
2023-04-02T17:55:42.930Z,97.92
2023-04-02T17:59:22.813Z,97.97
2023-04-02T18:02:51.576Z,98.56
2023-04-02T18:06:09.787Z,98.24
2023-04-02T18:09:37.778Z,98.58
2023-04-02T18:13:26.575Z,98.66
2023-04-02T18:16:42.255Z,97.86
2023-04-02T18:20:17.384Z,97.90
2023-04-02T18:27:35.393Z,98.48
2023-04-02T18:31:27.319Z,98.42
2023-04-02T18:34:58.066Z,97.51
2023-04-02T18:38:21.709Z,96.86
2023-04-02T18:41:57.383Z,96.14
2023-04-02T18:45:24.099Z,95.11
2023-04-02T18:48:50.266Z,95.06
2023-04-02T18:52:00.808Z,95.94
2023-04-02T18:55:19.139Z,96.37
2023-04-02T18:58:31.496Z,96.62
2023-04-02T19:01:40.586Z,96.97
2023-04-02T19:05:07.370Z,97.09
2023-04-02T19:09:02.272Z,94.71
2023-04-02T19:12:45.783Z,93.81
2023-04-02T19:16:18.042Z,93.52
2023-04-02T19:19:57.502Z,93.91
2023-04-02T19:27:30.671Z,93.63
2023-04-02T19:30:55.219Z,92.45
2023-04-02T19:34:41.292Z,92.31
2023-04-02T19:37:58.715Z,92.38
2023-04-02T19:45:01.990Z,91.40
2023-04-02T19:48:14.562Z,90.05
2023-04-02T19:51:19.770Z,88.72
2023-04-02T19:54:25.821Z,88.25
2023-04-02T19:57:31.922Z,86.41
2023-04-02T20:00:36.519Z,85.98
2023-04-02T20:03:42.167Z,85.34
2023-04-02T20:06:47.108Z,85.10
2023-04-02T20:09:50.084Z,84.86
2023-04-02T20:13:01.826Z,85.33
2023-04-02T20:16:13.802Z,83.11
2023-04-02T20:19:16.929Z,82.68
2023-04-02T20:22:21.539Z,81.99
2023-04-02T20:25:36.168Z,81.92
2023-04-02T20:28:40.496Z,83.05
2023-04-02T20:31:43.258Z,83.40
2023-04-02T20:34:45.577Z,83.35
2023-04-02T20:37:56.401Z,83.73
2023-04-02T20:41:00.522Z,82.63
2023-04-02T20:44:11.854Z,83.18
2023-04-02T20:47:25.372Z,83.03
2023-04-02T20:50:29.118Z,82.96
2023-04-02T20:53:37.521Z,81.86
2023-04-02T20:56:42.996Z,82.47
2023-04-02T20:59:44.619Z,82.24
2023-04-02T21:02:50.404Z,82.83
2023-04-02T21:05:55.738Z,81.29
2023-04-02T21:09:15.992Z,81.89
2023-04-02T21:12:21.577Z,80.86
2023-04-02T21:15:26.401Z,81.87
2023-04-02T21:18:37.852Z,81.44
2023-04-02T21:25:01.965Z,81.40
2023-04-02T21:28:07.380Z,80.79
2023-04-02T21:31:33.059Z,81.09
2023-04-02T21:34:38.504Z,80.74
2023-04-02T21:37:48.397Z,80.29
2023-04-02T21:41:01.397Z,79.77
2023-04-02T21:44:11.620Z,80.39
2023-04-02T21:47:16.806Z,80.05
2023-04-02T21:50:22.132Z,80.03
2023-04-02T21:53:33.141Z,80.00
2023-04-02T21:56:44.226Z,79.66
2023-04-02T21:59:48.180Z,79.68
2023-04-02T22:02:53.576Z,79.06
2023-04-02T22:06:17.620Z,78.97
2023-04-02T22:09:26.968Z,78.14
2023-04-02T22:12:31.667Z,77.25
2023-04-02T22:15:34.734Z,75.14
2023-04-02T22:18:41.851Z,74.71
2023-04-02T22:25:12.249Z,74.65
2023-04-02T22:28:23.273Z,73.86
2023-04-02T22:31:35.304Z,74.18
2023-04-02T22:34:57.466Z,74.55
2023-04-02T22:41:33.311Z,73.56
2023-04-02T22:44:37.465Z,74.08
2023-04-02T22:47:43.055Z,73.40
2023-04-02T22:50:52.099Z,73.44
2023-04-02T22:53:57.152Z,73.91
2023-04-02T22:57:02.055Z,74.63
2023-04-02T23:00:15.237Z,74.68
2023-04-02T23:03:20.086Z,74.04
2023-04-02T23:06:27.134Z,75.04
2023-04-02T23:09:32.693Z,75.56
2023-04-02T23:12:36.519Z,75.07
2023-04-02T23:15:41.633Z,75.70
2023-04-02T23:19:08.586Z,74.64
2023-04-02T23:22:13.141Z,75.39
2023-04-02T23:25:24.257Z,75.37
2023-04-02T23:28:37.675Z,74.66
2023-04-02T23:31:39.694Z,75.05
2023-04-02T23:34:43.711Z,75.44
2023-04-02T23:37:55.840Z,75.74
2023-04-02T23:41:00.563Z,75.51
2023-04-02T23:44:11.775Z,76.11
2023-04-02T23:47:16.896Z,76.33
2023-04-02T23:50:20.054Z,76.00
2023-04-02T23:53:22.429Z,76.10
2023-04-02T23:56:34.248Z,77.01
